Terminal Aerodrome Forecast
Issued by NWS

Home | Current Version | Previous Version | Graphics & Text | Print | Product List | Glossary On
Versions: 1 2 3 4 5 6 7 8 9 10 11 12 13 14 15 16 17 18 19 20 21 22 23 24 25 26 27 28 29 30 31 32 33 34 35 36 37
000
FTUS43 KPAH 041302 AAA
TAFOWB
TAF AMD
KOWB 041302Z 0413/0512 36010KT 3SM -RA BR OVC005
      TEMPO 0413/0416 2SM -RAPL SCT005 OVC010
     FM041600 35012G20KT 2SM -PL BR OVC005
      TEMPO 0419/0422 1SM -SNPL
     FM042200 35013G21KT 1 1/2SM -SN BR OVC005
     FM050900 01009KT 3SM BR SCT005 OVC015 PROB30 0509/0512 2SM -SN
      BR OVC005=

USA.gov is the U.S. government's official web portal to all federal, state and local government web resources and services.